Time;durP1;ratioP1;P1;durP2;ratioP2;P2;SDS_P1;SDS_P2;PMS_P1;PMS_P2;Temp;Humidity;BMP_temperature;BMP_pressure;BME280_temperature;BME280_humidity;BME280_pressure;Samples;Min_cycle;Max_cycle;Signal;HPM_P1;HPM_P2
2021/10/04 00:00:55;;;;;;;5.37;2.77;;;9.70;82.80;;;;;;5012198;28;20188;-72
2021/10/04 00:03:21;;;;;;;2.60;2.30;;;9.70;82.40;;;;;;5006660;28;20590;-72
2021/10/04 00:05:46;;;;;;;2.17;2.07;;;9.70;82.50;;;;;;5014685;28;20200;-72
2021/10/04 00:08:12;;;;;;;4.40;2.60;;;9.70;82.00;;;;;;5012905;28;20225;-72
2021/10/04 00:10:38;;;;;;;2.80;2.60;;;9.60;82.20;;;;;;5009694;28;20185;-73
2021/10/04 00:13:04;;;;;;;3.20;2.43;;;9.60;82.00;;;;;;5010756;28;20196;-73
2021/10/04 00:15:31;;;;;;;3.07;2.50;;;9.60;81.90;;;;;;5013881;28;20994;-72
2021/10/04 00:17:57;;;;;;;2.47;2.33;;;9.60;82.00;;;;;;5010098;28;20692;-73
2021/10/04 00:20:25;;;;;;;3.37;2.60;;;9.60;81.80;;;;;;5018239;28;20188;-73
2021/10/04 00:22:50;;;;;;;6.47;2.40;;;9.60;81.90;;;;;;5004096;28;20311;-73
2021/10/04 00:25:16;;;;;;;2.73;2.57;;;9.70;82.40;;;;;;5014922;28;20279;-72
2021/10/04 00:27:42;;;;;;;3.87;2.23;;;9.60;82.50;;;;;;5011407;28;20191;-73
2021/10/04 00:30:09;;;;;;;1.60;1.60;;;9.60;82.60;;;;;;5010959;28;20268;-72
2021/10/04 00:32:39;;;;;;;2.27;2.17;;;9.60;82.80;;;;;;5010914;28;20192;-72
2021/10/04 00:35:09;;;;;;;2.63;2.20;;;9.50;82.60;;;;;;5013870;28;20184;-72
2021/10/04 00:37:35;;;;;;;1.70;1.60;;;9.50;82.90;;;;;;5010853;28;20272;-72
2021/10/04 00:40:03;;;;;;;2.30;2.20;;;9.40;82.80;;;;;;5016666;28;20565;-72
2021/10/04 00:42:29;;;;;;;2.70;2.10;;;9.40;83.10;;;;;;5013408;28;20848;-72
2021/10/04 00:44:55;;;;;;;2.20;2.00;;;9.30;83.70;;;;;;5016357;28;20263;-73
2021/10/04 00:47:21;;;;;;;1.83;1.53;;;9.30;83.40;;;;;;5009592;28;20796;-73
2021/10/04 00:49:47;;;;;;;2.40;2.23;;;9.30;83.20;;;;;;5013814;28;20245;-73
2021/10/04 00:52:13;;;;;;;2.13;1.93;;;9.30;83.30;;;;;;5009485;28;20192;-72
2021/10/04 00:54:38;;;;;;;1.80;1.70;;;9.20;83.40;;;;;;5007722;28;20211;-72
2021/10/04 00:57:05;;;;;;;2.27;2.17;;;9.20;83.30;;;;;;5009800;28;20316;-73
2021/10/04 00:59:32;;;;;;;2.00;1.70;;;9.20;83.60;;;;;;5010736;28;20192;-72
2021/10/04 01:01:58;;;;;;;1.80;1.70;;;9.10;83.70;;;;;;5016149;28;20208;-73
2021/10/04 01:04:27;;;;;;;2.33;2.13;;;9.00;83.70;;;;;;5009769;28;20227;-72
2021/10/04 01:06:58;;;;;;;1.70;1.60;;;9.00;83.50;;;;;;5009657;28;20208;-72
2021/10/04 01:09:25;;;;;;;1.60;1.50;;;9.00;83.90;;;;;;5014705;28;20186;-72
2021/10/04 01:11:52;;;;;;;1.60;1.60;;;9.00;83.90;;;;;;5010315;28;20319;-72
2021/10/04 01:14:18;;;;;;;1.50;1.50;;;9.00;83.70;;;;;;5012862;28;20611;-72
2021/10/04 01:16:44;;;;;;;1.50;1.40;;;8.90;83.80;;;;;;5013669;28;20181;-72
2021/10/04 01:19:11;;;;;;;1.67;1.57;;;8.90;84.00;;;;;;5013952;28;20177;-72
2021/10/04 01:21:37;;;;;;;1.63;1.50;;;8.90;84.00;;;;;;5012426;28;20181;-73
2021/10/04 01:24:05;;;;;;;1.33;1.33;;;8.90;83.80;;;;;;5009355;28;20208;-73
2021/10/04 01:26:30;;;;;;;1.60;1.50;;;8.90;83.80;;;;;;5011983;28;20193;-72
2021/10/04 01:28:56;;;;;;;1.87;1.77;;;8.90;84.30;;;;;;5011910;28;20268;-72
2021/10/04 01:31:22;;;;;;;1.73;1.10;;;8.90;84.30;;;;;;5019545;28;20191;-72
2021/10/04 01:33:53;;;;;;;1.87;1.80;;;8.90;84.30;;;;;;5012744;28;20310;-72
2021/10/04 01:36:20;;;;;;;1.53;1.43;;;8.80;84.40;;;;;;5010774;28;20180;-72
2021/10/04 01:38:46;;;;;;;1.23;1.13;;;8.80;84.50;;;;;;5015063;28;20181;-73
2021/10/04 01:41:12;;;;;;;3.87;1.70;;;8.80;84.60;;;;;;5015222;28;20191;-72
2021/10/04 01:43:39;;;;;;;1.17;1.17;;;8.70;84.70;;;;;;5002927;28;20714;-72
2021/10/04 01:46:05;;;;;;;1.37;1.37;;;8.70;84.80;;;;;;5007729;28;20565;-72
2021/10/04 01:48:31;;;;;;;1.33;1.33;;;8.70;85.10;;;;;;5014959;28;20260;-72
2021/10/04 01:50:57;;;;;;;3.13;1.40;;;8.60;85.20;;;;;;5008393;28;20275;-72
2021/10/04 01:53:22;;;;;;;1.30;1.23;;;8.60;85.10;;;;;;5015482;28;20263;-72
2021/10/04 01:55:48;;;;;;;1.83;1.50;;;8.60;84.90;;;;;;5016263;28;20173;-72
2021/10/04 01:58:14;;;;;;;1.37;1.37;;;8.60;84.80;;;;;;5013779;28;20216;-72
2021/10/04 02:00:40;;;;;;;1.50;1.50;;;8.50;84.80;;;;;;5010297;28;20198;-72
2021/10/04 02:03:06;;;;;;;1.50;1.40;;;8.50;85.00;;;;;;5010360;28;20251;-72
2021/10/04 02:05:33;;;;;;;1.33;1.30;;;8.60;85.00;;;;;;5013329;28;20181;-72
2021/10/04 02:07:59;;;;;;;1.70;1.43;;;8.60;84.90;;;;;;5011241;28;20247;-73
2021/10/04 02:10:28;;;;;;;1.00;1.00;;;8.60;85.00;;;;;;5006365;28;20185;-72
2021/10/04 02:12:55;;;;;;;1.20;1.10;;;8.50;85.00;;;;;;5007270;28;20515;-72
2021/10/04 02:15:22;;;;;;;1.10;1.07;;;8.50;85.20;;;;;;5016662;28;20186;-72
2021/10/04 02:17:49;;;;;;;1.30;1.20;;;8.50;85.30;;;;;;5010304;28;20678;-72
2021/10/04 02:20:18;;;;;;;1.23;1.23;;;8.50;85.20;;;;;;5014834;28;20693;-73
2021/10/04 02:22:43;;;;;;;1.60;1.50;;;8.50;85.30;;;;;;5014939;28;20216;-72
2021/10/04 02:25:11;;;;;;;1.80;1.70;;;8.50;85.20;;;;;;5015708;28;20173;-73
2021/10/04 02:27:37;;;;;;;1.53;1.53;;;8.50;85.40;;;;;;5011224;28;20187;-72
2021/10/04 02:30:07;;;;;;;1.93;1.83;;;8.50;85.50;;;;;;5014476;28;20276;-72
2021/10/04 02:32:32;;;;;;;1.50;1.40;;;8.50;85.30;;;;;;5018146;28;20219;-72
2021/10/04 02:34:58;;;;;;;4.03;1.37;;;8.50;86.00;;;;;;5016998;28;20203;-72
2021/10/04 02:37:24;;;;;;;2.40;1.77;;;8.50;86.60;;;;;;5018973;28;20196;-72
2021/10/04 02:39:49;;;;;;;3.23;2.23;;;8.50;86.40;;;;;;5015676;28;20260;-72
2021/10/04 02:42:15;;;;;;;1.53;1.50;;;8.50;86.50;;;;;;5010756;28;20181;-73
2021/10/04 02:44:41;;;;;;;2.77;2.57;;;;;;;;;;5014087;28;20934;-73
2021/10/04 02:47:07;;;;;;;2.33;1.93;;;8.40;86.40;;;;;;5018420;28;20185;-72
2021/10/04 02:49:32;;;;;;;2.27;2.17;;;8.40;86.30;;;;;;5012410;28;20192;-70
2021/10/04 02:51:58;;;;;;;3.60;2.30;;;8.40;86.30;;;;;;5015282;28;20188;-73
2021/10/04 02:54:25;;;;;;;3.70;2.30;;;8.40;86.30;;;;;;5012456;28;20188;-72
2021/10/04 02:56:51;;;;;;;1.90;1.30;;;8.40;86.60;;;;;;5017423;28;20212;-73
2021/10/04 02:59:17;;;;;;;1.80;1.70;;;8.40;86.50;;;;;;5018704;28;20217;-74
2021/10/04 03:01:42;;;;;;;6.07;1.63;;;8.40;86.50;;;;;;5010926;28;20192;-74
2021/10/04 03:04:09;;;;;;;3.20;1.47;;;8.30;86.90;;;;;;5016973;28;20312;-72
2021/10/04 03:06:35;;;;;;;2.50;1.97;;;8.20;87.10;;;;;;5019150;28;20193;-74
2021/10/04 03:09:01;;;;;;;3.90;1.83;;;8.20;87.30;;;;;;5012118;28;21084;-73
2021/10/04 03:11:26;;;;;;;2.73;1.63;;;8.20;87.20;;;;;;5017014;28;20577;-72
2021/10/04 03:13:52;;;;;;;1.43;1.33;;;8.10;87.20;;;;;;5015232;28;20199;-73
2021/10/04 03:16:20;;;;;;;1.23;1.10;;;8.10;87.10;;;;;;5016534;28;20188;-73
2021/10/04 03:18:45;;;;;;;2.13;1.60;;;8.10;87.00;;;;;;5020243;28;20288;-72
2021/10/04 03:21:11;;;;;;;3.80;1.83;;;8.10;87.20;;;;;;5015005;28;21009;-71
2021/10/04 03:23:37;;;;;;;1.67;1.60;;;8.00;86.90;;;;;;5012924;28;20244;-73
2021/10/04 03:26:03;;;;;;;2.80;1.83;;;8.00;87.10;;;;;;5015245;28;20247;-73
2021/10/04 03:28:28;;;;;;;1.63;1.53;;;8.00;87.10;;;;;;5016677;28;20199;-74
2021/10/04 03:30:54;;;;;;;1.50;1.40;;;8.00;87.10;;;;;;5013477;28;20193;-71
2021/10/04 03:33:20;;;;;;;1.37;1.27;;;8.00;87.00;;;;;;5012321;28;20263;-73
2021/10/04 03:35:46;;;;;;;1.70;1.60;;;7.90;87.00;;;;;;5013147;28;20196;-73
2021/10/04 03:38:11;;;;;;;1.23;1.20;;;7.90;87.00;;;;;;5015603;28;20181;-73
2021/10/04 03:40:37;;;;;;;2.73;1.33;;;7.90;87.20;;;;;;5013265;28;20189;-73
2021/10/04 03:43:03;;;;;;;1.57;1.37;;;7.90;87.10;;;;;;5015013;28;20220;-73
2021/10/04 03:45:29;;;;;;;2.17;2.00;;;7.90;87.20;;;;;;5017775;28;20258;-73
2021/10/04 03:47:54;;;;;;;1.70;1.60;;;7.90;87.10;;;;;;5011755;28;20194;-72
2021/10/04 03:50:20;;;;;;;1.53;1.43;;;7.90;87.30;;;;;;5012179;28;20196;-72
2021/10/04 03:52:47;;;;;;;1.77;1.60;;;7.90;87.60;;;;;;5017207;28;20188;-72
2021/10/04 03:55:15;;;;;;;1.63;1.50;;;7.90;87.50;;;;;;5012312;28;20221;-72
2021/10/04 03:57:43;;;;;;;1.97;1.67;;;7.80;87.60;;;;;;5014620;28;20187;-73
2021/10/04 04:00:14;;;;;;;1.77;1.67;;;7.80;87.50;;;;;;5010424;28;20184;-72
2021/10/04 04:02:39;;;;;;;1.53;1.27;;;7.80;87.70;;;;;;5009386;28;20590;-72
2021/10/04 04:05:06;;;;;;;2.30;1.70;;;7.80;87.80;;;;;;5014433;28;20185;-72
2021/10/04 04:07:31;;;;;;;2.30;2.10;;;7.80;88.10;;;;;;5014383;28;20189;-73
2021/10/04 04:09:57;;;;;;;4.13;1.90;;;7.80;88.30;;;;;;5013723;28;20242;-73
2021/10/04 04:12:24;;;;;;;2.47;2.03;;;7.80;88.40;;;;;;5014149;28;20273;-72
2021/10/04 04:14:50;;;;;;;1.77;1.57;;;7.70;88.40;;;;;;5013302;28;20184;-73
2021/10/04 04:17:16;;;;;;;3.10;2.10;;;7.70;88.30;;;;;;5013278;28;20185;-73
2021/10/04 04:19:41;;;;;;;2.47;1.67;;;7.60;88.30;;;;;;5017402;28;20965;-72
2021/10/04 04:22:07;;;;;;;2.17;2.00;;;7.60;88.40;;;;;;5008627;28;20177;-73
2021/10/04 04:24:33;;;;;;;1.93;1.60;;;7.60;88.70;;;;;;5014425;28;20199;-73
2021/10/04 04:27:04;;;;;;;2.33;2.13;;;7.60;88.80;;;;;;5013838;28;20184;-73
2021/10/04 04:29:30;;;;;;;1.73;1.63;;;7.60;88.60;;;;;;5018707;28;20266;-73
2021/10/04 04:31:56;;;;;;;3.83;1.77;;;7.60;88.70;;;;;;5017366;28;20177;-73
2021/10/04 04:34:21;;;;;;;2.57;2.37;;;7.60;88.60;;;;;;5011622;28;20698;-70
2021/10/04 04:36:48;;;;;;;5.80;2.33;;;7.60;88.60;;;;;;5016686;28;20187;-69
2021/10/04 04:39:14;;;;;;;6.90;1.43;;;7.70;88.50;;;;;;5008063;28;20645;-70
2021/10/04 04:41:39;;;;;;;3.23;2.00;;;7.60;88.50;;;;;;5012532;28;20185;-70
2021/10/04 04:44:05;;;;;;;2.57;1.80;;;7.70;88.50;;;;;;5010405;28;20992;-70
2021/10/04 04:46:31;;;;;;;7.03;1.83;;;7.60;88.30;;;;;;5008258;28;20173;-70
2021/10/04 04:48:57;;;;;;;1.60;1.60;;;7.60;88.30;;;;;;5004700;28;20189;-73
2021/10/04 04:51:23;;;;;;;3.97;1.77;;;7.60;88.20;;;;;;5011762;28;20260;-72
2021/10/04 04:53:48;;;;;;;2.37;1.80;;;7.70;88.40;;;;;;5010831;28;20292;-74
2021/10/04 04:56:15;;;;;;;2.07;1.97;;;7.70;88.40;;;;;;5011541;28;20203;-74
2021/10/04 04:58:41;;;;;;;2.50;1.93;;;7.70;88.50;;;;;;5014932;28;20189;-74
2021/10/04 05:01:08;;;;;;;3.33;1.73;;;7.70;88.40;;;;;;5009723;28;20208;-74
2021/10/04 05:03:33;;;;;;;2.53;2.37;;;7.70;88.40;;;;;;5008580;28;20702;-74
2021/10/04 05:06:00;;;;;;;9.13;2.10;;;7.80;88.30;;;;;;5009684;28;20192;-73
2021/10/04 05:08:26;;;;;;;9.20;2.37;;;7.80;88.10;;;;;;5011251;28;20212;-74
2021/10/04 05:10:52;;;;;;;2.40;2.20;;;7.80;88.10;;;;;;5005289;28;20212;-74
2021/10/04 05:13:18;;;;;;;10.67;3.07;;;7.80;88.10;;;;;;5005676;28;20203;-72
2021/10/04 05:15:43;;;;;;;2.03;1.93;;;7.90;88.10;;;;;;5013023;28;20197;-73
2021/10/04 05:18:09;;;;;;;3.30;2.23;;;7.90;88.00;;;;;;5011015;28;20659;-74
2021/10/04 05:20:35;;;;;;;4.40;2.03;;;7.90;88.10;;;;;;5009201;28;20176;-73
2021/10/04 05:23:00;;;;;;;3.33;2.03;;;8.00;88.10;;;;;;5005570;28;20220;-73
2021/10/04 05:25:26;;;;;;;4.17;2.60;;;8.00;87.90;;;;;;5008103;28;20180;-73
2021/10/04 05:27:52;;;;;;;2.97;2.70;;;8.00;88.00;;;;;;5007139;28;20185;-72
2021/10/04 05:30:18;;;;;;;4.83;2.70;;;8.00;88.10;;;;;;5010858;28;20192;-73
2021/10/04 05:32:43;;;;;;;3.10;2.27;;;8.10;88.10;;;;;;5006742;28;20648;-72
2021/10/04 05:35:12;;;;;;;3.07;2.23;;;8.10;88.10;;;;;;5010288;28;20191;-73
2021/10/04 05:37:38;;;;;;;4.80;2.50;;;8.20;88.00;;;;;;5013522;28;20195;-73
2021/10/04 05:40:05;;;;;;;3.43;3.13;;;8.20;88.20;;;;;;5013786;28;20247;-73
2021/10/04 05:42:32;;;;;;;3.23;2.93;;;8.30;88.30;;;;;;5009846;28;20219;-73
2021/10/04 05:45:02;;;;;;;4.73;3.70;;;8.30;88.50;;;;;;5008057;28;20173;-72
2021/10/04 05:47:28;;;;;;;9.80;3.93;;;8.40;88.10;;;;;;5011109;28;20302;-74
2021/10/04 05:49:54;;;;;;;13.07;3.53;;;8.40;88.30;;;;;;5012049;28;20216;-75
2021/10/04 05:52:20;;;;;;;2.77;2.57;;;8.50;88.50;;;;;;5012958;28;20195;-74
2021/10/04 05:54:46;;;;;;;2.67;2.57;;;8.50;88.20;;;;;;5010791;28;20671;-74
2021/10/04 05:57:11;;;;;;;5.90;3.10;;;8.60;88.10;;;;;;5006510;28;20185;-75
2021/10/04 05:59:37;;;;;;;4.23;3.30;;;8.60;87.90;;;;;;5009148;28;20185;-75
2021/10/04 06:02:03;;;;;;;3.77;3.40;;;8.70;87.90;;;;;;5011110;28;20207;-75
2021/10/04 06:04:29;;;;;;;5.10;3.70;;;8.80;87.70;;;;;;5014966;28;20722;-75
2021/10/04 06:06:55;;;;;;;4.20;3.17;;;8.80;87.50;;;;;;5011837;28;20193;-75
2021/10/04 06:09:20;;;;;;;3.53;3.23;;;8.80;87.40;;;;;;5012388;28;20180;-77
2021/10/04 06:11:46;;;;;;;3.73;3.30;;;8.90;87.20;;;;;;5011695;28;20276;-77
2021/10/04 06:14:12;;;;;;;6.17;3.67;;;9.00;87.30;;;;;;5010685;28;20177;-75
2021/10/04 06:16:38;;;;;;;9.63;4.73;;;9.00;87.20;;;;;;5015949;28;20184;-74
2021/10/04 06:19:04;;;;;;;4.33;3.53;;;9.10;87.10;;;;;;5003080;28;21125;-71
2021/10/04 06:21:30;;;;;;;4.27;3.87;;;9.10;87.00;;;;;;5002680;28;20220;-74
2021/10/04 06:23:56;;;;;;;3.70;3.37;;;9.20;86.90;;;;;;5011795;28;20216;-73
2021/10/04 06:26:22;;;;;;;4.80;4.00;;;9.30;86.80;;;;;;5010065;28;20213;-72
2021/10/04 06:28:48;;;;;;;4.53;4.13;;;9.30;86.70;;;;;;5018748;28;20280;-74
2021/10/04 06:31:13;;;;;;;9.10;4.97;;;9.40;86.60;;;;;;5016353;28;20185;-73
2021/10/04 06:33:39;;;;;;;5.03;3.93;;;9.40;86.50;;;;;;5009606;28;20862;-73
2021/10/04 06:36:05;;;;;;;7.03;4.60;;;9.50;86.70;;;;;;5013429;28;20599;-73
2021/10/04 06:38:32;;;;;;;4.70;4.30;;;9.50;86.60;;;;;;5010001;28;20276;-71
2021/10/04 06:40:57;;;;;;;7.73;4.57;;;9.60;86.40;;;;;;5014384;28;20196;-72
2021/10/04 06:43:23;;;;;;;7.40;4.77;;;9.70;86.30;;;;;;5013549;28;20220;-73
2021/10/04 06:45:49;;;;;;;5.93;4.40;;;9.70;86.00;;;;;;5011373;28;20192;-73
2021/10/04 06:48:15;;;;;;;4.70;4.40;;;9.80;85.70;;;;;;5013529;28;20189;-72
2021/10/04 06:50:41;;;;;;;4.93;4.27;;;9.90;85.60;;;;;;5009828;28;20220;-73
2021/10/04 06:53:07;;;;;;;5.23;4.83;;;9.90;85.40;;;;;;5005101;28;20239;-72
2021/10/04 06:55:32;;;;;;;4.70;3.77;;;10.00;85.30;;;;;;5012318;28;20196;-71
2021/10/04 06:57:58;;;;;;;4.33;3.93;;;10.10;85.50;;;;;;5011249;28;20283;-71
2021/10/04 07:00:24;;;;;;;4.10;3.50;;;10.20;85.50;;;;;;5015449;28;20180;-73
2021/10/04 07:02:51;;;;;;;4.60;4.17;;;10.20;84.90;;;;;;5011616;28;20216;-71
2021/10/04 07:05:18;;;;;;;4.67;4.17;;;10.30;84.50;;;;;;5011050;28;20260;-72
2021/10/04 07:07:49;;;;;;;3.90;3.63;;;10.40;84.30;;;;;;5011396;28;20559;-73
2021/10/04 07:10:16;;;;;;;4.23;3.30;;;10.50;84.00;;;;;;5009896;28;20237;-71
2021/10/04 07:12:42;;;;;;;7.10;4.50;;;10.60;83.60;;;;;;5008654;28;20193;-73
2021/10/04 07:15:09;;;;;;;4.33;3.93;;;10.80;83.30;;;;;;5009591;28;20188;-72
2021/10/04 07:17:37;;;;;;;3.63;3.37;;;10.90;82.70;;;;;;5007106;28;21681;-72
2021/10/04 07:20:04;;;;;;;6.17;4.40;;;11.00;82.30;;;;;;5012155;28;20262;-72
2021/10/04 07:22:30;;;;;;;4.73;4.00;;;11.10;82.20;;;;;;5013935;28;20240;-71
2021/10/04 07:24:55;;;;;;;7.60;4.37;;;11.20;82.40;;;;;;5011211;28;20188;-72
2021/10/04 07:27:21;;;;;;;7.80;4.90;;;11.40;82.40;;;;;;5014581;28;20180;-71
2021/10/04 07:29:47;;;;;;;5.15;4.20;;;11.60;82.10;;;;;;5015063;28;20212;-72
2021/10/04 07:32:13;;;;;;;4.97;4.60;;;11.80;81.50;;;;;;5014841;28;20181;-69
2021/10/04 07:34:38;;;;;;;8.30;3.97;;;12.10;80.90;;;;;;5015257;28;20188;-72
2021/10/04 07:37:06;;;;;;;10.75;4.22;;;12.50;79.80;;;;;;5014218;28;20184;-71
2021/10/04 07:39:32;;;;;;;5.35;4.80;;;12.90;79.30;;;;;;5011546;28;20544;-72
2021/10/04 07:41:59;;;;;;;8.77;4.25;;;13.40;79.50;;;;;;5005724;28;20173;-72
2021/10/04 07:44:25;;;;;;;5.38;4.60;;;14.10;77.80;;;;;;5014156;28;20333;-72
2021/10/04 07:46:53;;;;;;;5.05;4.55;;;14.90;75.20;;;;;;5016469;28;20254;-72
2021/10/04 07:49:19;;;;;;;6.70;4.22;;;15.80;74.20;;;;;;5013101;28;20206;-72
2021/10/04 07:51:45;;;;;;;9.23;4.57;;;16.80;72.70;;;;;;5012412;28;20180;-71
2021/10/04 07:54:11;;;;;;;7.07;5.10;;;17.90;71.20;;;;;;5016960;28;20189;-73
2021/10/04 07:56:39;;;;;;;5.05;4.65;;;19.00;68.40;;;;;;5013069;28;20181;-73
2021/10/04 07:59:09;;;;;;;6.25;5.22;;;19.90;66.40;;;;;;5014827;28;20185;-72
2021/10/04 08:01:36;;;;;;;8.10;5.63;;;20.70;63.50;;;;;;5015229;28;20185;-72
2021/10/04 08:04:03;;;;;;;5.68;5.22;;;21.50;62.10;;;;;;5013794;28;20215;-72
2021/10/04 08:06:28;;;;;;;6.13;5.53;;;22.10;59.80;;;;;;5013778;28;20192;-72
2021/10/04 08:08:54;;;;;;;7.10;5.28;;;22.70;58.80;;;;;;5013335;28;20188;-72
2021/10/04 08:11:21;;;;;;;6.00;5.35;;;23.40;59.00;;;;;;5008762;28;20268;-72
2021/10/04 08:13:50;;;;;;;11.13;5.22;;;24.20;57.70;;;;;;5013983;28;20727;-72
2021/10/04 08:16:16;;;;;;;10.77;5.55;;;24.70;56.20;;;;;;5010877;28;20192;-72
2021/10/04 08:18:42;;;;;;;10.35;5.57;;;25.30;55.10;;;;;;5006834;28;20184;-72
2021/10/04 08:21:08;;;;;;;7.72;5.28;;;25.90;54.80;;;;;;5011765;28;20245;-72
2021/10/04 08:23:37;;;;;;;10.02;5.40;;;26.50;53.60;;;;;;5014254;28;20310;-72
2021/10/04 08:26:04;;;;;;;9.20;5.13;;;27.10;53.70;;;;;;5010366;28;20185;-72
2021/10/04 08:28:32;;;;;;;9.80;5.32;;;27.50;51.10;;;;;;5007337;28;20258;-72
2021/10/04 08:30:58;;;;;;;5.88;5.03;;;28.00;52.30;;;;;;5010224;28;20197;-72
2021/10/04 08:33:23;;;;;;;10.02;4.55;;;28.60;51.80;;;;;;5012145;28;20188;-72
2021/10/04 08:35:49;;;;;;;3.92;3.72;;;29.30;51.70;;;;;;5011287;28;20597;-72
2021/10/04 08:38:15;;;;;;;6.03;3.67;;;29.90;50.40;;;;;;5015016;28;20284;-72
2021/10/04 08:40:41;;;;;;;4.93;4.53;;;30.50;49.60;;;;;;5007733;28;22391;-73
2021/10/04 08:43:07;;;;;;;4.63;4.00;;;30.80;48.30;;;;;;5016443;28;20266;-72
2021/10/04 08:45:33;;;;;;;4.90;4.15;;;31.20;47.40;;;;;;5011360;28;20271;-72
2021/10/04 08:48:02;;;;;;;5.13;3.15;;;31.50;46.10;;;;;;5012528;28;20242;-72
2021/10/04 08:50:31;;;;;;;5.50;3.92;;;31.80;46.20;;;;;;5009954;28;20275;-71
2021/10/04 08:52:59;;;;;;;3.75;3.63;;;32.20;44.60;;;;;;5009416;28;20271;-70
2021/10/04 08:55:25;;;;;;;3.60;3.42;;;32.40;46.10;;;;;;5013080;28;20258;-71
2021/10/04 08:57:51;;;;;;;5.80;4.00;;;32.90;46.80;;;;;;5012313;28;20181;-71
2021/10/04 09:00:17;;;;;;;10.40;3.85;;;33.30;45.70;;;;;;5013420;28;20262;-71
2021/10/04 09:02:45;;;;;;;3.28;3.15;;;33.70;44.30;;;;;;5010271;28;20223;-71
2021/10/04 09:05:27;;;;;;;3.70;3.40;;;34.00;44.80;;;;;;5014022;28;20280;-70
2021/10/04 09:07:55;;;;;;;6.88;3.47;;;34.40;43.10;;;;;;5008288;28;20215;-70
2021/10/04 09:10:24;;;;;;;5.90;3.10;;;34.90;44.00;;;;;;5008307;28;20196;-72
2021/10/04 09:12:53;;;;;;;3.65;3.40;;;35.30;43.70;;;;;;5007974;28;20655;-73
2021/10/04 09:15:22;;;;;;;7.50;3.75;;;35.60;42.90;;;;;;5009024;28;20191;-71
2021/10/04 09:17:49;;;;;;;3.85;3.65;;;35.90;43.10;;;;;;5013474;28;20188;-71
2021/10/04 09:20:14;;;;;;;3.63;3.33;;;36.20;42.10;;;;;;5012101;28;20276;-70
2021/10/04 09:22:40;;;;;;;5.90;3.65;;;36.50;41.70;;;;;;5012038;28;20330;-70
2021/10/04 09:25:07;;;;;;;4.03;3.75;;;36.80;42.10;;;;;;5009596;28;20238;-72
2021/10/04 09:27:41;;;;;;;4.35;3.80;;;37.00;42.30;;;;;;5014001;28;20657;-71
2021/10/04 09:30:12;;;;;;;6.30;3.42;;;37.30;41.10;;;;;;5009128;28;20189;-72
2021/10/04 09:32:46;;;;;;;3.08;2.83;;;37.50;41.80;;;;;;5011437;28;20188;-72
2021/10/04 09:35:18;;;;;;;2.45;2.35;;;37.90;40.50;;;;;;5020067;28;20183;-72
2021/10/04 09:37:46;;;;;;;4.35;3.33;;;38.10;41.00;;;;;;5017376;28;20588;-72
2021/10/04 09:40:25;;;;;;;4.10;3.20;;;38.00;39.80;;;;;;5018331;28;20571;-72
2021/10/04 09:42:50;;;;;;;2.90;2.70;;;37.40;38.10;;;;;;5015746;28;20217;-72
2021/10/04 09:45:16;;;;;;;3.88;3.45;;;37.20;41.20;;;;;;5015071;28;20192;-72
2021/10/04 09:47:43;;;;;;;5.53;3.70;;;37.40;41.80;;;;;;5017938;28;20637;-72
2021/10/04 09:50:11;;;;;;;3.03;2.80;;;37.60;40.70;;;;;;5019274;28;20272;-73
2021/10/04 09:52:51;;;;;;;3.45;3.17;;;38.00;41.00;;;;;;5013739;28;20279;-72
2021/10/04 09:55:22;;;;;;;5.78;3.00;;;38.20;38.50;;;;;;5015391;28;20241;-73
2021/10/04 09:58:14;;;;;;;4.15;3.80;;;38.50;39.90;;;;;;5015363;28;20621;-73
2021/10/04 10:00:46;;;;;;;6.38;3.20;;;38.70;36.80;;;;;;5017895;28;20198;-74
2021/10/04 10:03:13;;;;;;;2.72;2.63;;;38.70;38.80;;;;;;5015731;28;20242;-73
2021/10/04 10:05:43;;;;;;;2.38;2.28;;;38.70;36.40;;;;;;5019522;28;20266;-73
2021/10/04 10:08:09;;;;;;;2.25;2.15;;;38.40;39.50;;;;;;5017162;28;20172;-73
2021/10/04 10:10:40;;;;;;;2.58;2.40;;;38.30;40.20;;;;;;5015599;28;20192;-73
2021/10/04 10:13:07;;;;;;;2.40;2.20;;;38.10;40.30;;;;;;5018278;28;20212;-71
2021/10/04 10:15:34;;;;;;;2.85;2.42;;;38.00;39.70;;;;;;5015795;28;20187;-73
2021/10/04 10:18:09;;;;;;;3.70;2.38;;;38.10;39.50;;;;;;5015436;28;20190;-73
2021/10/04 10:20:36;;;;;;;3.47;1.83;;;38.00;40.20;;;;;;5015794;28;20207;-72
2021/10/04 10:23:02;;;;;;;3.53;2.28;;;37.80;40.60;;;;;;5017000;28;20249;-71
2021/10/04 10:25:36;;;;;;;2.65;2.45;;;38.00;40.40;;;;;;5016565;28;20218;-73
2021/10/04 10:28:04;;;;;;;4.53;1.98;;;38.10;38.10;;;;;;5018439;28;20188;-74
2021/10/04 10:30:31;;;;;;;1.98;1.98;;;38.30;38.80;;;;;;5018777;28;20180;-72
2021/10/04 10:32:58;;;;;;;2.53;2.33;;;38.30;38.80;;;;;;5019868;28;20208;-73
2021/10/04 10:35:59;;;;;;;1.98;1.98;;;38.30;39.90;;;;;;5022747;28;20753;-73
2021/10/04 10:39:10;;;;;;;1.80;1.60;;;38.20;36.60;;;;;;5007672;28;20843;-74
2021/10/04 10:41:36;;;;;;;2.30;2.08;;;38.30;37.40;;;;;;5020642;28;20206;-73
2021/10/04 10:44:03;;;;;;;2.40;2.28;;;38.50;38.50;;;;;;5024558;28;20188;-73
2021/10/04 10:46:50;;;;;;;5.53;1.88;;;38.70;39.50;;;;;;5025573;28;21070;-73
2021/10/04 10:49:53;;;;;;;2.50;1.95;;;38.70;36.30;;;;;;5039603;28;20733;-73
2021/10/04 10:52:21;;;;;;;6.40;1.88;;;38.40;36.60;;;;;;5025056;28;20277;-73
2021/10/04 10:54:48;;;;;;;2.40;2.30;;;38.30;35.70;;;;;;5023943;28;20192;-72
2021/10/04 10:57:14;;;;;;;2.20;2.05;;;38.00;39.70;;;;;;5022319;28;20210;-73
2021/10/04 10:59:40;;;;;;;2.47;2.38;;;38.10;38.10;;;;;;5023501;28;20199;-73
2021/10/04 11:02:26;;;;;;;2.05;1.95;;;38.20;36.50;;;;;;5024160;28;20184;-74
2021/10/04 11:04:52;;;;;;;2.03;1.77;;;38.30;37.50;;;;;;5024272;28;20195;-74
2021/10/04 11:07:52;;;;;;;2.30;2.20;;;38.30;38.10;;;;;;5023633;28;20183;-74
2021/10/04 11:10:18;;;;;;;2.17;2.17;;;38.50;37.30;;;;;;5021366;28;20602;-73
2021/10/04 11:13:09;;;;;;;2.42;2.33;;;38.50;38.40;;;;;;5014316;28;20224;-72
2021/10/04 11:15:39;;;;;;;2.38;2.28;;;38.40;36.50;;;;;;5018053;28;20681;-73
2021/10/04 11:18:07;;;;;;;4.20;1.95;;;38.30;38.00;;;;;;5015501;28;20184;-72
2021/10/04 11:20:33;;;;;;;2.45;2.30;;;38.40;37.60;;;;;;5013605;28;20887;-73
2021/10/04 11:23:05;;;;;;;2.60;2.08;;;38.50;38.50;;;;;;5016067;28;20192;-73
2021/10/04 11:25:49;;;;;;;1.80;1.70;;;38.50;38.30;;;;;;5020923;28;20184;-73
2021/10/04 11:28:35;;;;;;;2.10;2.00;;;38.50;37.30;;;;;;5012003;28;20181;-73
2021/10/04 11:31:21;;;;;;;2.65;2.13;;;38.70;37.00;;;;;;5011337;28;20187;-73
2021/10/04 11:34:01;;;;;;;2.25;2.15;;;38.90;36.30;;;;;;5007996;28;20263;-73
2021/10/04 11:36:32;;;;;;;2.20;2.10;;;39.10;37.90;;;;;;5014537;28;20188;-73
2021/10/04 11:39:00;;;;;;;1.92;1.83;;;39.40;38.10;;;;;;5013477;28;20184;-73
2021/10/04 11:41:35;;;;;;;2.33;2.22;;;39.50;36.80;;;;;;5010554;28;20215;-73
2021/10/04 11:44:07;;;;;;;2.53;2.20;;;39.70;37.10;;;;;;5009658;28;20188;-73
2021/10/04 11:46:39;;;;;;;2.00;2.00;;;39.60;36.80;;;;;;5013048;28;20202;-73
2021/10/04 11:49:15;;;;;;;2.15;2.05;;;39.10;37.10;;;;;;5012229;28;20267;-73
2021/10/04 11:51:49;;;;;;;2.47;2.30;;;38.50;37.20;;;;;;5012278;28;20195;-73
2021/10/04 11:54:34;;;;;;;1.88;1.77;;;38.20;37.00;;;;;;5012789;28;20268;-73
2021/10/04 11:57:00;;;;;;;2.10;2.00;;;37.90;35.30;;;;;;5013819;28;20235;-73
2021/10/04 11:59:26;;;;;;;3.30;1.88;;;37.80;38.40;;;;;;5015290;28;20188;-72
2021/10/04 12:01:52;;;;;;;2.75;2.55;;;37.90;37.80;;;;;;5015313;28;20185;-72
2021/10/04 12:04:20;;;;;;;3.53;2.25;;;38.20;37.70;;;;;;5012031;28;20192;-73
2021/10/04 12:06:47;;;;;;;2.20;2.15;;;38.40;37.00;;;;;;5012142;28;20181;-73
2021/10/04 12:09:21;;;;;;;1.80;1.80;;;38.60;37.90;;;;;;5014473;28;20184;-72
2021/10/04 12:11:57;;;;;;;1.90;1.73;;;38.90;37.50;;;;;;5017262;28;20285;-72
2021/10/04 12:14:26;;;;;;;1.98;1.88;;;38.90;35.00;;;;;;5013241;28;20298;-72
2021/10/04 12:17:03;;;;;;;1.75;1.75;;;38.80;37.30;;;;;;5015975;28;20191;-73
2021/10/04 12:19:29;;;;;;;2.88;2.05;;;38.90;37.00;;;;;;5012289;28;20229;-74
2021/10/04 12:21:56;;;;;;;1.70;1.70;;;38.90;36.90;;;;;;5009776;28;20254;-73
2021/10/04 12:24:24;;;;;;;2.03;1.83;;;38.60;37.40;;;;;;5012412;28;20176;-73
2021/10/04 12:26:49;;;;;;;2.60;2.08;;;38.30;38.10;;;;;;5014048;28;20180;-73
2021/10/04 12:29:42;;;;;;;2.40;2.05;;;37.80;38.70;;;;;;5010699;28;20192;-72
2021/10/04 12:32:19;;;;;;;2.28;2.08;;;37.40;37.00;;;;;;5011071;28;20667;-73
2021/10/04 12:35:12;;;;;;;1.70;1.70;;;37.20;37.70;;;;;;5008214;28;20254;-72
2021/10/04 12:37:40;;;;;;;3.47;2.00;;;37.20;36.90;;;;;;5011890;28;20188;-74
2021/10/04 12:40:20;;;;;;;3.28;2.00;;;37.30;37.00;;;;;;5016019;28;20173;-71
2021/10/04 12:42:46;;;;;;;3.47;2.08;;;37.30;37.40;;;;;;5010214;28;20188;-73
2021/10/04 12:45:13;;;;;;;2.20;2.05;;;37.40;38.10;;;;;;5013677;28;20264;-72
2021/10/04 12:48:13;;;;;;;2.20;2.10;;;37.50;37.70;;;;;;5013196;28;20658;-73
2021/10/04 12:50:41;;;;;;;2.00;1.90;;;37.60;36.40;;;;;;5007964;28;20192;-73
2021/10/04 12:53:14;;;;;;;2.05;1.95;;;37.70;38.10;;;;;;5013831;28;20281;-72
2021/10/04 12:55:59;;;;;;;2.28;2.17;;;37.70;37.30;;;;;;5015875;28;20510;-72
2021/10/04 12:58:30;;;;;;;2.20;2.10;;;37.70;36.30;;;;;;5009573;28;20192;-74